Alexandria, NE (68303)

10:00 AM CDT on September 19, 2014 (GMT -0500)
Crystal Springs Campground | Change Station
CLOSE
Current Station
Personal Weather Station
Location: Fairbury, NE
Elevation: 1424 ft
Nearby Weather Stations

Elev 1424 ft 40.13 °N, 97.21 °W | Updated 1 second ago

Clear
Clear
72.2 °F
Feels Like 72 °F
N
10.0
Wind Variable Wind from SSW
Gusts 11.0 mph

Today
High -- | Low -- °F
--% Chance of Precip.
Yesterday
High -- | Low -- °F
Precip. -- in
7:14 AM 7:31 PM
Waning Crescent, 18% visible
Pressure 29.94 in
Visibility 10.0 miles
Clouds Clear
Heat Index 72 °F
Dew Point 67 °F
Humidity 83%
Rainfall 0.00 in
Snow Depth Not available.
UV 2 out of 12
Pollen 6.80 out of 12
Air Quality Not available.
Flu Activity Not available.
METAR KHJH 191435Z AUTO 19007G14KT 10SM CLR 21/17 A2994 RMK AO2 T02090170

More Conditions Fewer Conditions

Pressure 29.94 in
Visibility 10.0 miles
Clouds Clear
Heat Index 72 °F
Dew Point 67 °F
Humidity 83%
Rainfall 0.00 in
Snow Depth Not available.
UV 2 out of 12
Pollen 6.80 out of 12
Air Quality Not available.
Flu Activity Not available.
METAR KHJH 191435Z AUTO 19007G14KT 10SM CLR 21/17 A2994 RMK AO2 T02090170

More Conditions Fewer Conditions

10-Day Weather Forecast

Almanac

Astronomy

Sep. 19, 2014 Rise Set
Actual Time 7:14 AM CDT 7:31 PM CDT
Civil Twilight 6:47 AM CDT 7:58 PM CDT
Nautical Twilight 6:15 AM CDT 8:30 PM CDT
Astronomical Twilight 5:42 AM CDT 9:03 PM CDT
Moon 3:00 AM CDT 5:01 PM CDT
Length of Visible Light 13h 11m
Length of Day
12h 17m
Tomorrow will be 2m 38s shorter.
Waning Crescent, 18% of the Moon is Illuminated
Today
Waning Crescent
Sep 24
New
Oct 1
First Quarter
Oct 8
Full
Oct 15
Last Quarter

Today's Extremes

State Highs State Lows

Community

WunderPhotos

Upload Photos

1,754,633 photos uploaded!

WunderBlogs® & News

By Dr. Jeff Masters
Director of Meteorology, Weather Underground
By Kari Strenfel
Meteorologist, Weather Underground
By Christopher C. Burt
Weather Historian, Weather Underground
September 19, 2014
September 19, 2014
September 19, 2014

Nearby

Snow Depth

Station Depth Elevation
No new snow has been reported.

Earthquake Activity

City Distance Mag. Time & Date
No recent earthquake activity has been reported nearby.
Minimum magnitude displayed is 2.5.

Coastal Water Temperatures

Place Temperature
No Stations Reporting

Nearby Weather Stations